sensor_id;sensor_type;location;lat;lon;timestamp;P1;durP1;ratioP1;P2;durP2;ratioP2
48987;SDS011;34799;51.440;-2.534;2023-04-25T00:00:03;10.07;;;2.88;;
48987;SDS011;34799;51.440;-2.534;2023-04-25T00:02:38;13.63;;;2.70;;
48987;SDS011;34799;51.440;-2.534;2023-04-25T00:05:06;9.63;;;2.80;;
48987;SDS011;34799;51.440;-2.534;2023-04-25T00:07:34;8.88;;;2.30;;
48987;SDS011;34799;51.440;-2.534;2023-04-25T00:10:02;9.00;;;2.92;;
48987;SDS011;34799;51.440;-2.534;2023-04-25T00:12:29;11.75;;;2.30;;
48987;SDS011;34799;51.440;-2.534;2023-04-25T00:14:56;10.60;;;2.30;;
48987;SDS011;34799;51.440;-2.534;2023-04-25T00:17:26;13.93;;;3.00;;
48987;SDS011;34799;51.440;-2.534;2023-04-25T00:19:53;13.63;;;3.10;;
48987;SDS011;34799;51.440;-2.534;2023-04-25T00:22:21;13.02;;;3.60;;
48987;SDS011;34799;51.440;-2.534;2023-04-25T00:24:48;9.98;;;2.53;;
48987;SDS011;34799;51.440;-2.534;2023-04-25T00:27:15;10.88;;;2.63;;
48987;SDS011;34799;51.440;-2.534;2023-04-25T00:29:42;13.30;;;3.10;;
48987;SDS011;34799;51.440;-2.534;2023-04-25T00:32:09;8.13;;;2.30;;
48987;SDS011;34799;51.440;-2.534;2023-04-25T00:34:36;9.43;;;2.47;;
48987;SDS011;34799;51.440;-2.534;2023-04-25T00:37:05;10.65;;;2.67;;
48987;SDS011;34799;51.440;-2.534;2023-04-25T00:39:32;6.88;;;2.60;;
48987;SDS011;34799;51.440;-2.534;2023-04-25T00:41:59;11.55;;;3.25;;
48987;SDS011;34799;51.440;-2.534;2023-04-25T00:44:29;10.43;;;2.75;;
48987;SDS011;34799;51.440;-2.534;2023-04-25T00:46:57;13.40;;;3.28;;
48987;SDS011;34799;51.440;-2.534;2023-04-25T00:49:26;14.32;;;2.67;;
48987;SDS011;34799;51.440;-2.534;2023-04-25T00:51:53;10.05;;;2.38;;
48987;SDS011;34799;51.440;-2.534;2023-04-25T00:54:21;13.02;;;2.75;;
48987;SDS011;34799;51.440;-2.534;2023-04-25T00:56:48;14.50;;;3.03;;
48987;SDS011;34799;51.440;-2.534;2023-04-25T00:59:15;9.30;;;2.80;;
48987;SDS011;34799;51.440;-2.534;2023-04-25T01:01:46;8.18;;;3.38;;
48987;SDS011;34799;51.440;-2.534;2023-04-25T01:04:13;6.40;;;2.25;;
48987;SDS011;34799;51.440;-2.534;2023-04-25T01:06:40;11.95;;;2.65;;
48987;SDS011;34799;51.440;-2.534;2023-04-25T01:09:07;10.00;;;3.15;;
48987;SDS011;34799;51.440;-2.534;2023-04-25T01:11:34;9.75;;;2.83;;
48987;SDS011;34799;51.440;-2.534;2023-04-25T01:14:01;9.82;;;3.75;;
48987;SDS011;34799;51.440;-2.534;2023-04-25T01:16:28;10.13;;;3.55;;
48987;SDS011;34799;51.440;-2.534;2023-04-25T01:18:57;12.80;;;4.13;;
48987;SDS011;34799;51.440;-2.534;2023-04-25T01:21:25;16.77;;;4.85;;
48987;SDS011;34799;51.440;-2.534;2023-04-25T01:23:54;12.88;;;4.07;;
48987;SDS011;34799;51.440;-2.534;2023-04-25T01:26:21;13.95;;;3.88;;
48987;SDS011;34799;51.440;-2.534;2023-04-25T01:28:49;15.20;;;5.40;;
48987;SDS011;34799;51.440;-2.534;2023-04-25T01:31:17;12.18;;;4.40;;
48987;SDS011;34799;51.440;-2.534;2023-04-25T01:33:45;11.90;;;4.32;;
48987;SDS011;34799;51.440;-2.534;2023-04-25T01:36:13;18.73;;;4.38;;
48987;SDS011;34799;51.440;-2.534;2023-04-25T01:38:41;13.88;;;4.63;;
48987;SDS011;34799;51.440;-2.534;2023-04-25T01:41:11;11.73;;;3.53;;
48987;SDS011;34799;51.440;-2.534;2023-04-25T01:43:39;11.07;;;3.53;;
48987;SDS011;34799;51.440;-2.534;2023-04-25T01:46:07;16.70;;;3.70;;
48987;SDS011;34799;51.440;-2.534;2023-04-25T01:48:34;18.40;;;4.10;;
48987;SDS011;34799;51.440;-2.534;2023-04-25T01:51:01;13.48;;;3.28;;
48987;SDS011;34799;51.440;-2.534;2023-04-25T01:53:28;9.02;;;2.67;;
48987;SDS011;34799;51.440;-2.534;2023-04-25T01:55:58;12.52;;;2.60;;
48987;SDS011;34799;51.440;-2.534;2023-04-25T01:58:30;11.20;;;2.58;;
48987;SDS011;34799;51.440;-2.534;2023-04-25T02:01:17;12.43;;;2.50;;
48987;SDS011;34799;51.440;-2.534;2023-04-25T02:03:56;11.00;;;2.22;;
48987;SDS011;34799;51.440;-2.534;2023-04-25T02:06:28;9.90;;;2.20;;
48987;SDS011;34799;51.440;-2.534;2023-04-25T02:08:57;11.02;;;2.25;;
48987;SDS011;34799;51.440;-2.534;2023-04-25T02:11:24;6.55;;;1.85;;
48987;SDS011;34799;51.440;-2.534;2023-04-25T02:14:18;11.50;;;2.25;;
48987;SDS011;34799;51.440;-2.534;2023-04-25T02:17:08;12.55;;;2.17;;
48987;SDS011;34799;51.440;-2.534;2023-04-25T02:19:36;8.85;;;2.88;;
48987;SDS011;34799;51.440;-2.534;2023-04-25T02:22:03;8.80;;;1.75;;
48987;SDS011;34799;51.440;-2.534;2023-04-25T02:24:30;8.65;;;1.98;;
48987;SDS011;34799;51.440;-2.534;2023-04-25T02:27:01;9.65;;;1.85;;
48987;SDS011;34799;51.440;-2.534;2023-04-25T02:29:29;10.90;;;2.78;;
48987;SDS011;34799;51.440;-2.534;2023-04-25T02:31:56;12.50;;;2.10;;
48987;SDS011;34799;51.440;-2.534;2023-04-25T02:34:25;10.38;;;2.08;;
48987;SDS011;34799;51.440;-2.534;2023-04-25T02:36:52;8.77;;;2.45;;
48987;SDS011;34799;51.440;-2.534;2023-04-25T02:39:19;11.00;;;2.65;;
48987;SDS011;34799;51.440;-2.534;2023-04-25T02:41:49;9.95;;;2.10;;
48987;SDS011;34799;51.440;-2.534;2023-04-25T02:44:16;8.13;;;1.83;;
48987;SDS011;34799;51.440;-2.534;2023-04-25T02:46:44;8.93;;;1.65;;
48987;SDS011;34799;51.440;-2.534;2023-04-25T02:49:11;11.35;;;2.15;;
48987;SDS011;34799;51.440;-2.534;2023-04-25T02:51:38;8.90;;;1.77;;
48987;SDS011;34799;51.440;-2.534;2023-04-25T02:54:05;9.18;;;2.22;;
48987;SDS011;34799;51.440;-2.534;2023-04-25T02:56:36;9.05;;;2.30;;
48987;SDS011;34799;51.440;-2.534;2023-04-25T02:59:10;7.95;;;2.03;;
48987;SDS011;34799;51.440;-2.534;2023-04-25T03:01:37;8.82;;;2.13;;
48987;SDS011;34799;51.440;-2.534;2023-04-25T03:04:04;8.88;;;2.30;;
48987;SDS011;34799;51.440;-2.534;2023-04-25T03:06:31;8.82;;;2.30;;
48987;SDS011;34799;51.440;-2.534;2023-04-25T03:08:58;8.70;;;2.30;;
48987;SDS011;34799;51.440;-2.534;2023-04-25T03:11:26;17.23;;;2.78;;
48987;SDS011;34799;51.440;-2.534;2023-04-25T03:13:53;7.53;;;2.25;;
48987;SDS011;34799;51.440;-2.534;2023-04-25T03:16:21;9.10;;;1.95;;
48987;SDS011;34799;51.440;-2.534;2023-04-25T03:18:50;14.25;;;2.58;;
48987;SDS011;34799;51.440;-2.534;2023-04-25T03:21:17;10.88;;;2.00;;
48987;SDS011;34799;51.440;-2.534;2023-04-25T03:23:44;7.90;;;2.08;;
48987;SDS011;34799;51.440;-2.534;2023-04-25T03:26:11;11.13;;;3.00;;
48987;SDS011;34799;51.440;-2.534;2023-04-25T03:28:38;6.70;;;1.92;;
48987;SDS011;34799;51.440;-2.534;2023-04-25T03:31:06;9.32;;;2.55;;
48987;SDS011;34799;51.440;-2.534;2023-04-25T03:33:35;7.15;;;2.30;;
48987;SDS011;34799;51.440;-2.534;2023-04-25T03:36:02;8.43;;;2.22;;
48987;SDS011;34799;51.440;-2.534;2023-04-25T03:38:30;9.40;;;1.92;;
48987;SDS011;34799;51.440;-2.534;2023-04-25T03:40:57;9.93;;;2.05;;
48987;SDS011;34799;51.440;-2.534;2023-04-25T03:43:44;8.45;;;1.67;;
48987;SDS011;34799;51.440;-2.534;2023-04-25T03:46:14;9.70;;;1.95;;
48987;SDS011;34799;51.440;-2.534;2023-04-25T03:48:42;9.88;;;2.25;;
48987;SDS011;34799;51.440;-2.534;2023-04-25T03:51:14;6.95;;;1.83;;
48987;SDS011;34799;51.440;-2.534;2023-04-25T03:53:43;6.95;;;1.88;;
48987;SDS011;34799;51.440;-2.534;2023-04-25T03:56:13;8.13;;;1.85;;
48987;SDS011;34799;51.440;-2.534;2023-04-25T03:58:44;12.55;;;1.70;;
48987;SDS011;34799;51.440;-2.534;2023-04-25T04:01:12;10.60;;;1.95;;
48987;SDS011;34799;51.440;-2.534;2023-04-25T04:03:39;9.85;;;1.73;;
48987;SDS011;34799;51.440;-2.534;2023-04-25T04:06:07;7.30;;;1.40;;
48987;SDS011;34799;51.440;-2.534;2023-04-25T04:08:39;9.85;;;1.30;;
48987;SDS011;34799;51.440;-2.534;2023-04-25T04:11:08;10.38;;;1.98;;
48987;SDS011;34799;51.440;-2.534;2023-04-25T04:13:35;5.57;;;1.45;;
48987;SDS011;34799;51.440;-2.534;2023-04-25T04:16:04;9.63;;;1.42;;
48987;SDS011;34799;51.440;-2.534;2023-04-25T04:18:32;8.88;;;1.70;;
48987;SDS011;34799;51.440;-2.534;2023-04-25T04:21:00;7.60;;;1.98;;
48987;SDS011;34799;51.440;-2.534;2023-04-25T04:23:30;8.32;;;1.27;;
48987;SDS011;34799;51.440;-2.534;2023-04-25T04:26:00;7.82;;;1.90;;
48987;SDS011;34799;51.440;-2.534;2023-04-25T04:28:59;5.28;;;2.08;;
48987;SDS011;34799;51.440;-2.534;2023-04-25T04:31:47;10.65;;;2.90;;
48987;SDS011;34799;51.440;-2.534;2023-04-25T04:34:16;7.22;;;2.05;;
48987;SDS011;34799;51.440;-2.534;2023-04-25T04:36:46;12.63;;;1.80;;
48987;SDS011;34799;51.440;-2.534;2023-04-25T04:39:14;11.98;;;2.15;;
48987;SDS011;34799;51.440;-2.534;2023-04-25T04:41:53;10.13;;;1.50;;
48987;SDS011;34799;51.440;-2.534;2023-04-25T04:44:50;8.35;;;1.30;;
48987;SDS011;34799;51.440;-2.534;2023-04-25T04:47:35;5.50;;;1.23;;
48987;SDS011;34799;51.440;-2.534;2023-04-25T04:50:21;7.38;;;2.20;;
48987;SDS011;34799;51.440;-2.534;2023-04-25T04:53:04;11.23;;;1.63;;
48987;SDS011;34799;51.440;-2.534;2023-04-25T04:55:37;10.55;;;1.10;;
48987;SDS011;34799;51.440;-2.534;2023-04-25T04:58:24;10.50;;;1.30;;
48987;SDS011;34799;51.440;-2.534;2023-04-25T05:01:12;5.47;;;1.42;;
48987;SDS011;34799;51.440;-2.534;2023-04-25T05:03:54;8.57;;;1.20;;
48987;SDS011;34799;51.440;-2.534;2023-04-25T05:06:45;10.10;;;1.85;;
48987;SDS011;34799;51.440;-2.534;2023-04-25T05:09:33;5.03;;;1.80;;
48987;SDS011;34799;51.440;-2.534;2023-04-25T05:12:08;9.85;;;2.00;;
48987;SDS011;34799;51.440;-2.534;2023-04-25T05:14:57;8.35;;;2.25;;
48987;SDS011;34799;51.440;-2.534;2023-04-25T05:17:31;11.30;;;1.80;;
48987;SDS011;34799;51.440;-2.534;2023-04-25T05:20:22;11.27;;;1.70;;
48987;SDS011;34799;51.440;-2.534;2023-04-25T05:23:02;13.38;;;2.40;;
48987;SDS011;34799;51.440;-2.534;2023-04-25T05:26:00;12.10;;;1.73;;
48987;SDS011;34799;51.440;-2.534;2023-04-25T05:28:44;6.40;;;1.10;;
48987;SDS011;34799;51.440;-2.534;2023-04-25T05:31:31;5.35;;;1.80;;
48987;SDS011;34799;51.440;-2.534;2023-04-25T05:34:03;7.78;;;1.65;;
48987;SDS011;34799;51.440;-2.534;2023-04-25T05:36:49;10.20;;;2.22;;
48987;SDS011;34799;51.440;-2.534;2023-04-25T05:39:16;7.68;;;1.60;;
48987;SDS011;34799;51.440;-2.534;2023-04-25T05:42:06;5.93;;;1.50;;
48987;SDS011;34799;51.440;-2.534;2023-04-25T05:44:48;8.55;;;1.52;;
48987;SDS011;34799;51.440;-2.534;2023-04-25T05:47:49;11.27;;;3.33;;
48987;SDS011;34799;51.440;-2.534;2023-04-25T05:50:25;8.20;;;2.53;;
48987;SDS011;34799;51.440;-2.534;2023-04-25T05:53:22;8.68;;;1.75;;
48987;SDS011;34799;51.440;-2.534;2023-04-25T05:55:58;9.65;;;1.90;;
48987;SDS011;34799;51.440;-2.534;2023-04-25T05:58:26;11.63;;;1.65;;
48987;SDS011;34799;51.440;-2.534;2023-04-25T06:00:53;10.65;;;1.40;;
48987;SDS011;34799;51.440;-2.534;2023-04-25T06:03:22;6.80;;;1.30;;
48987;SDS011;34799;51.440;-2.534;2023-04-25T06:05:49;5.32;;;1.33;;
48987;SDS011;34799;51.440;-2.534;2023-04-25T06:08:18;6.35;;;1.45;;
48987;SDS011;34799;51.440;-2.534;2023-04-25T06:10:46;4.70;;;0.88;;
48987;SDS011;34799;51.440;-2.534;2023-04-25T06:13:13;4.10;;;1.00;;
48987;SDS011;34799;51.440;-2.534;2023-04-25T06:15:40;7.43;;;1.63;;
48987;SDS011;34799;51.440;-2.534;2023-04-25T06:18:07;8.15;;;1.80;;
48987;SDS011;34799;51.440;-2.534;2023-04-25T06:20:34;9.88;;;1.40;;
48987;SDS011;34799;51.440;-2.534;2023-04-25T06:23:01;6.90;;;1.40;;
48987;SDS011;34799;51.440;-2.534;2023-04-25T06:25:44;9.00;;;1.98;;
48987;SDS011;34799;51.440;-2.534;2023-04-25T06:28:11;9.35;;;2.13;;
48987;SDS011;34799;51.440;-2.534;2023-04-25T06:30:40;10.25;;;3.85;;
48987;SDS011;34799;51.440;-2.534;2023-04-25T06:33:12;13.77;;;2.00;;
48987;SDS011;34799;51.440;-2.534;2023-04-25T06:35:40;9.05;;;1.50;;
48987;SDS011;34799;51.440;-2.534;2023-04-25T06:38:11;9.32;;;1.60;;
48987;SDS011;34799;51.440;-2.534;2023-04-25T06:40:40;9.73;;;2.58;;
48987;SDS011;34799;51.440;-2.534;2023-04-25T06:43:09;8.52;;;2.03;;
48987;SDS011;34799;51.440;-2.534;2023-04-25T06:45:57;11.40;;;2.90;;
48987;SDS011;34799;51.440;-2.534;2023-04-25T06:48:29;9.57;;;2.17;;
48987;SDS011;34799;51.440;-2.534;2023-04-25T06:50:58;13.25;;;2.97;;
48987;SDS011;34799;51.440;-2.534;2023-04-25T06:53:25;12.25;;;2.28;;
48987;SDS011;34799;51.440;-2.534;2023-04-25T06:55:57;6.53;;;1.83;;
48987;SDS011;34799;51.440;-2.534;2023-04-25T06:58:30;10.48;;;2.35;;
48987;SDS011;34799;51.440;-2.534;2023-04-25T07:01:25;7.55;;;1.20;;
48987;SDS011;34799;51.440;-2.534;2023-04-25T07:03:54;11.60;;;1.20;;
48987;SDS011;34799;51.440;-2.534;2023-04-25T07:06:22;3.95;;;0.63;;
48987;SDS011;34799;51.440;-2.534;2023-04-25T07:08:49;4.63;;;0.80;;
48987;SDS011;34799;51.440;-2.534;2023-04-25T07:11:16;10.85;;;1.33;;
48987;SDS011;34799;51.440;-2.534;2023-04-25T07:13:43;10.00;;;1.33;;
48987;SDS011;34799;51.440;-2.534;2023-04-25T07:16:12;6.88;;;1.13;;
48987;SDS011;34799;51.440;-2.534;2023-04-25T07:18:40;7.68;;;1.00;;
48987;SDS011;34799;51.440;-2.534;2023-04-25T07:21:08;6.88;;;1.20;;
48987;SDS011;34799;51.440;-2.534;2023-04-25T07:23:36;8.25;;;1.10;;
48987;SDS011;34799;51.440;-2.534;2023-04-25T07:26:09;7.45;;;1.13;;
48987;SDS011;34799;51.440;-2.534;2023-04-25T07:28:43;10.35;;;2.10;;
48987;SDS011;34799;51.440;-2.534;2023-04-25T07:31:10;10.45;;;1.00;;
48987;SDS011;34799;51.440;-2.534;2023-04-25T07:33:37;10.60;;;1.60;;
48987;SDS011;34799;51.440;-2.534;2023-04-25T07:36:04;10.60;;;1.70;;
48987;SDS011;34799;51.440;-2.534;2023-04-25T07:38:32;7.38;;;1.13;;
48987;SDS011;34799;51.440;-2.534;2023-04-25T07:41:01;6.07;;;1.08;;
48987;SDS011;34799;51.440;-2.534;2023-04-25T07:43:29;7.20;;;1.77;;
48987;SDS011;34799;51.440;-2.534;2023-04-25T07:45:58;9.80;;;0.90;;
48987;SDS011;34799;51.440;-2.534;2023-04-25T07:48:28;8.35;;;1.35;;
48987;SDS011;34799;51.440;-2.534;2023-04-25T07:50:56;6.00;;;0.98;;
48987;SDS011;34799;51.440;-2.534;2023-04-25T07:53:24;9.85;;;0.80;;
48987;SDS011;34799;51.440;-2.534;2023-04-25T07:55:56;9.02;;;0.90;;
48987;SDS011;34799;51.440;-2.534;2023-04-25T07:58:24;5.40;;;0.60;;
48987;SDS011;34799;51.440;-2.534;2023-04-25T08:00:58;8.18;;;1.08;;
48987;SDS011;34799;51.440;-2.534;2023-04-25T08:03:44;5.32;;;0.77;;
48987;SDS011;34799;51.440;-2.534;2023-04-25T08:06:21;6.88;;;1.00;;
48987;SDS011;34799;51.440;-2.534;2023-04-25T08:08:57;4.50;;;0.60;;
48987;SDS011;34799;51.440;-2.534;2023-04-25T08:11:32;6.95;;;0.98;;
48987;SDS011;34799;51.440;-2.534;2023-04-25T08:13:59;6.45;;;0.70;;
48987;SDS011;34799;51.440;-2.534;2023-04-25T08:16:26;7.80;;;0.70;;
48987;SDS011;34799;51.440;-2.534;2023-04-25T08:18:53;4.93;;;0.70;;
48987;SDS011;34799;51.440;-2.534;2023-04-25T08:21:20;7.88;;;0.70;;
48987;SDS011;34799;51.440;-2.534;2023-04-25T08:23:49;7.15;;;0.70;;
48987;SDS011;34799;51.440;-2.534;2023-04-25T08:26:24;4.18;;;0.68;;
48987;SDS011;34799;51.440;-2.534;2023-04-25T08:28:52;5.43;;;0.95;;
48987;SDS011;34799;51.440;-2.534;2023-04-25T08:31:21;3.22;;;0.50;;
48987;SDS011;34799;51.440;-2.534;2023-04-25T08:33:54;5.00;;;0.90;;
48987;SDS011;34799;51.440;-2.534;2023-04-25T08:36:30;5.80;;;0.30;;
48987;SDS011;34799;51.440;-2.534;2023-04-25T08:39:04;3.10;;;0.50;;
48987;SDS011;34799;51.440;-2.534;2023-04-25T08:41:37;3.13;;;0.45;;
48987;SDS011;34799;51.440;-2.534;2023-04-25T08:44:05;6.35;;;0.50;;
48987;SDS011;34799;51.440;-2.534;2023-04-25T08:46:40;4.93;;;0.30;;
48987;SDS011;34799;51.440;-2.534;2023-04-25T08:49:23;3.60;;;0.40;;
48987;SDS011;34799;51.440;-2.534;2023-04-25T08:51:52;6.28;;;0.40;;
48987;SDS011;34799;51.440;-2.534;2023-04-25T08:54:22;5.25;;;0.85;;
48987;SDS011;34799;51.440;-2.534;2023-04-25T08:56:57;3.83;;;0.35;;
48987;SDS011;34799;51.440;-2.534;2023-04-25T08:59:30;3.80;;;0.50;;
48987;SDS011;34799;51.440;-2.534;2023-04-25T09:02:00;2.97;;;0.38;;
48987;SDS011;34799;51.440;-2.534;2023-04-25T09:04:30;3.92;;;0.50;;
48987;SDS011;34799;51.440;-2.534;2023-04-25T09:06:58;7.03;;;0.30;;
48987;SDS011;34799;51.440;-2.534;2023-04-25T09:09:25;7.35;;;0.45;;
48987;SDS011;34799;51.440;-2.534;2023-04-25T09:11:54;4.10;;;0.38;;
48987;SDS011;34799;51.440;-2.534;2023-04-25T09:14:24;1.63;;;0.35;;
48987;SDS011;34799;51.440;-2.534;2023-04-25T09:17:03;3.13;;;0.30;;
48987;SDS011;34799;51.440;-2.534;2023-04-25T09:19:37;2.70;;;0.50;;
48987;SDS011;34799;51.440;-2.534;2023-04-25T09:22:22;3.60;;;0.40;;
48987;SDS011;34799;51.440;-2.534;2023-04-25T09:24:49;4.90;;;0.43;;
48987;SDS011;34799;51.440;-2.534;2023-04-25T09:27:21;3.88;;;0.35;;
48987;SDS011;34799;51.440;-2.534;2023-04-25T09:30:03;2.50;;;0.40;;
48987;SDS011;34799;51.440;-2.534;2023-04-25T09:32:47;4.65;;;0.40;;
48987;SDS011;34799;51.440;-2.534;2023-04-25T09:35:23;2.72;;;0.30;;
48987;SDS011;34799;51.440;-2.534;2023-04-25T09:37:53;2.47;;;0.30;;
48987;SDS011;34799;51.440;-2.534;2023-04-25T09:40:43;2.03;;;0.30;;
48987;SDS011;34799;51.440;-2.534;2023-04-25T09:43:24;3.38;;;0.60;;
48987;SDS011;34799;51.440;-2.534;2023-04-25T09:45:54;2.80;;;0.20;;
48987;SDS011;34799;51.440;-2.534;2023-04-25T09:48:24;3.50;;;0.52;;
48987;SDS011;34799;51.440;-2.534;2023-04-25T09:53:43;4.05;;;0.35;;
48987;SDS011;34799;51.440;-2.534;2023-04-25T09:56:38;2.38;;;0.75;;
48987;SDS011;34799;51.440;-2.534;2023-04-25T09:59:07;3.28;;;0.35;;
48987;SDS011;34799;51.440;-2.534;2023-04-25T10:01:36;1.75;;;0.70;;
48987;SDS011;34799;51.440;-2.534;2023-04-25T10:04:20;2.95;;;0.55;;
48987;SDS011;34799;51.440;-2.534;2023-04-25T10:07:06;3.72;;;0.28;;
48987;SDS011;34799;51.440;-2.534;2023-04-25T10:09:38;5.18;;;0.40;;
48987;SDS011;34799;51.440;-2.534;2023-04-25T10:12:06;3.67;;;0.40;;
48987;SDS011;34799;51.440;-2.534;2023-04-25T10:14:34;4.85;;;0.38;;
48987;SDS011;34799;51.440;-2.534;2023-04-25T10:17:02;3.20;;;0.40;;
48987;SDS011;34799;51.440;-2.534;2023-04-25T10:19:29;1.92;;;0.30;;
48987;SDS011;34799;51.440;-2.534;2023-04-25T10:22:06;3.25;;;0.40;;
48987;SDS011;34799;51.440;-2.534;2023-04-25T10:24:38;4.53;;;0.57;;
48987;SDS011;34799;51.440;-2.534;2023-04-25T10:27:06;2.78;;;0.40;;
48987;SDS011;34799;51.440;-2.534;2023-04-25T10:29:35;2.72;;;0.40;;
48987;SDS011;34799;51.440;-2.534;2023-04-25T10:32:02;4.03;;;0.50;;
48987;SDS011;34799;51.440;-2.534;2023-04-25T10:34:39;7.22;;;0.45;;
48987;SDS011;34799;51.440;-2.534;2023-04-25T10:37:08;2.13;;;0.30;;
48987;SDS011;34799;51.440;-2.534;2023-04-25T10:39:39;2.95;;;0.85;;
48987;SDS011;34799;51.440;-2.534;2023-04-25T10:42:07;3.58;;;0.47;;
48987;SDS011;34799;51.440;-2.534;2023-04-25T10:44:36;1.58;;;0.40;;
48987;SDS011;34799;51.440;-2.534;2023-04-25T10:47:06;5.28;;;0.90;;
48987;SDS011;34799;51.440;-2.534;2023-04-25T10:49:38;1.45;;;0.70;;
48987;SDS011;34799;51.440;-2.534;2023-04-25T10:54:46;2.75;;;0.50;;
48987;SDS011;34799;51.440;-2.534;2023-04-25T10:59:58;6.47;;;0.70;;
48987;SDS011;34799;51.440;-2.534;2023-04-25T11:05:22;4.15;;;0.60;;
48987;SDS011;34799;51.440;-2.534;2023-04-25T11:07:57;1.95;;;0.40;;
48987;SDS011;34799;51.440;-2.534;2023-04-25T11:10:33;3.43;;;0.40;;
48987;SDS011;34799;51.440;-2.534;2023-04-25T11:13:01;1.70;;;0.32;;
48987;SDS011;34799;51.440;-2.534;2023-04-25T11:15:29;3.90;;;0.40;;
48987;SDS011;34799;51.440;-2.534;2023-04-25T11:17:56;2.53;;;0.30;;
48987;SDS011;34799;51.440;-2.534;2023-04-25T11:20:25;2.28;;;0.70;;
48987;SDS011;34799;51.440;-2.534;2023-04-25T11:22:56;3.58;;;0.50;;
48987;SDS011;34799;51.440;-2.534;2023-04-25T11:25:28;2.83;;;0.38;;
48987;SDS011;34799;51.440;-2.534;2023-04-25T11:27:56;2.22;;;0.50;;
48987;SDS011;34799;51.440;-2.534;2023-04-25T11:30:25;1.67;;;0.30;;
48987;SDS011;34799;51.440;-2.534;2023-04-25T11:32:53;4.90;;;1.15;;
48987;SDS011;34799;51.440;-2.534;2023-04-25T11:35:21;4.65;;;0.75;;
48987;SDS011;34799;51.440;-2.534;2023-04-25T11:37:49;3.90;;;0.52;;
48987;SDS011;34799;51.440;-2.534;2023-04-25T11:40:16;3.33;;;0.30;;
48987;SDS011;34799;51.440;-2.534;2023-04-25T11:42:46;5.35;;;0.47;;
48987;SDS011;34799;51.440;-2.534;2023-04-25T11:45:14;3.00;;;0.30;;
48987;SDS011;34799;51.440;-2.534;2023-04-25T11:47:43;2.65;;;0.38;;
48987;SDS011;34799;51.440;-2.534;2023-04-25T11:50:10;2.72;;;0.32;;
48987;SDS011;34799;51.440;-2.534;2023-04-25T11:52:41;1.88;;;0.40;;
48987;SDS011;34799;51.440;-2.534;2023-04-25T11:55:19;3.47;;;0.35;;
48987;SDS011;34799;51.440;-2.534;2023-04-25T11:57:48;3.03;;;0.40;;
48987;SDS011;34799;51.440;-2.534;2023-04-25T12:00:17;3.15;;;0.45;;
48987;SDS011;34799;51.440;-2.534;2023-04-25T12:02:51;2.33;;;0.68;;
48987;SDS011;34799;51.440;-2.534;2023-04-25T12:05:25;1.27;;;0.30;;
48987;SDS011;34799;51.440;-2.534;2023-04-25T12:07:57;2.70;;;0.65;;
48987;SDS011;34799;51.440;-2.534;2023-04-25T12:10:24;3.15;;;0.28;;
48987;SDS011;34799;51.440;-2.534;2023-04-25T12:12:52;2.17;;;0.40;;
48987;SDS011;34799;51.440;-2.534;2023-04-25T12:15:24;1.83;;;0.28;;
48987;SDS011;34799;51.440;-2.534;2023-04-25T12:17:53;5.05;;;0.30;;
48987;SDS011;34799;51.440;-2.534;2023-04-25T12:20:23;8.48;;;0.60;;
48987;SDS011;34799;51.440;-2.534;2023-04-25T12:22:52;4.05;;;0.40;;
48987;SDS011;34799;51.440;-2.534;2023-04-25T12:28:15;1.83;;;0.45;;
48987;SDS011;34799;51.440;-2.534;2023-04-25T12:31:06;3.00;;;0.40;;
48987;SDS011;34799;51.440;-2.534;2023-04-25T12:33:36;2.05;;;0.20;;
48987;SDS011;34799;51.440;-2.534;2023-04-25T12:36:04;0.82;;;0.20;;
48987;SDS011;34799;51.440;-2.534;2023-04-25T12:38:38;2.50;;;0.25;;
48987;SDS011;34799;51.440;-2.534;2023-04-25T12:41:08;1.55;;;0.40;;
48987;SDS011;34799;51.440;-2.534;2023-04-25T12:43:35;2.60;;;0.30;;
48987;SDS011;34799;51.440;-2.534;2023-04-25T12:46:02;2.45;;;0.45;;
48987;SDS011;34799;51.440;-2.534;2023-04-25T12:48:29;1.27;;;0.30;;
48987;SDS011;34799;51.440;-2.534;2023-04-25T12:50:57;3.22;;;0.40;;
48987;SDS011;34799;51.440;-2.534;2023-04-25T12:53:24;2.97;;;0.35;;
48987;SDS011;34799;51.440;-2.534;2023-04-25T12:55:51;3.05;;;0.20;;
48987;SDS011;34799;51.440;-2.534;2023-04-25T12:58:18;1.73;;;0.50;;
48987;SDS011;34799;51.440;-2.534;2023-04-25T13:00:47;2.42;;;0.30;;
48987;SDS011;34799;51.440;-2.534;2023-04-25T13:03:14;1.10;;;0.30;;
48987;SDS011;34799;51.440;-2.534;2023-04-25T13:05:41;2.35;;;0.30;;
48987;SDS011;34799;51.440;-2.534;2023-04-25T13:08:09;3.25;;;0.30;;
48987;SDS011;34799;51.440;-2.534;2023-04-25T13:10:36;1.35;;;0.20;;
48987;SDS011;34799;51.440;-2.534;2023-04-25T13:13:07;2.28;;;0.40;;
48987;SDS011;34799;51.440;-2.534;2023-04-25T13:15:34;1.45;;;0.20;;
48987;SDS011;34799;51.440;-2.534;2023-04-25T13:18:03;4.15;;;0.40;;
48987;SDS011;34799;51.440;-2.534;2023-04-25T13:20:31;2.20;;;0.40;;
48987;SDS011;34799;51.440;-2.534;2023-04-25T13:22:59;3.05;;;0.20;;
48987;SDS011;34799;51.440;-2.534;2023-04-25T13:25:28;3.05;;;0.60;;
48987;SDS011;34799;51.440;-2.534;2023-04-25T13:27:55;2.38;;;0.40;;
48987;SDS011;34799;51.440;-2.534;2023-04-25T13:30:22;1.90;;;0.40;;
48987;SDS011;34799;51.440;-2.534;2023-04-25T13:32:49;7.28;;;1.05;;
48987;SDS011;34799;51.440;-2.534;2023-04-25T13:35:16;4.57;;;0.90;;
48987;SDS011;34799;51.440;-2.534;2023-04-25T13:37:43;1.20;;;0.30;;
48987;SDS011;34799;51.440;-2.534;2023-04-25T13:40:10;2.50;;;0.30;;
48987;SDS011;34799;51.440;-2.534;2023-04-25T13:42:39;2.58;;;0.43;;
48987;SDS011;34799;51.440;-2.534;2023-04-25T13:45:07;3.00;;;0.43;;
48987;SDS011;34799;51.440;-2.534;2023-04-25T13:47:34;4.05;;;0.30;;
48987;SDS011;34799;51.440;-2.534;2023-04-25T13:50:02;4.10;;;0.50;;
48987;SDS011;34799;51.440;-2.534;2023-04-25T13:52:30;2.67;;;0.45;;
48987;SDS011;34799;51.440;-2.534;2023-04-25T13:54:59;2.58;;;0.50;;
48987;SDS011;34799;51.440;-2.534;2023-04-25T13:57:27;2.20;;;0.40;;
48987;SDS011;34799;51.440;-2.534;2023-04-25T13:59:54;3.75;;;0.40;;
48987;SDS011;34799;51.440;-2.534;2023-04-25T14:02:21;1.38;;;0.50;;
48987;SDS011;34799;51.440;-2.534;2023-04-25T14:04:48;2.88;;;0.40;;
48987;SDS011;34799;51.440;-2.534;2023-04-25T14:07:15;3.30;;;0.30;;
48987;SDS011;34799;51.440;-2.534;2023-04-25T14:09:43;2.13;;;0.35;;
48987;SDS011;34799;51.440;-2.534;2023-04-25T14:12:11;8.00;;;0.40;;
48987;SDS011;34799;51.440;-2.534;2023-04-25T14:14:38;2.33;;;0.20;;
48987;SDS011;34799;51.440;-2.534;2023-04-25T14:17:05;2.25;;;0.30;;
48987;SDS011;34799;51.440;-2.534;2023-04-25T14:19:33;2.67;;;0.20;;
48987;SDS011;34799;51.440;-2.534;2023-04-25T14:22:00;2.50;;;0.50;;
48987;SDS011;34799;51.440;-2.534;2023-04-25T14:24:27;2.33;;;0.30;;
48987;SDS011;34799;51.440;-2.534;2023-04-25T14:26:54;2.28;;;0.40;;
48987;SDS011;34799;51.440;-2.534;2023-04-25T14:29:23;2.22;;;0.40;;
48987;SDS011;34799;51.440;-2.534;2023-04-25T14:31:50;1.10;;;0.38;;
48987;SDS011;34799;51.440;-2.534;2023-04-25T14:34:17;2.33;;;0.32;;
48987;SDS011;34799;51.440;-2.534;2023-04-25T14:36:44;2.28;;;0.45;;
48987;SDS011;34799;51.440;-2.534;2023-04-25T14:39:12;2.95;;;0.30;;
48987;SDS011;34799;51.440;-2.534;2023-04-25T14:41:40;2.40;;;0.90;;
48987;SDS011;34799;51.440;-2.534;2023-04-25T14:44:07;2.67;;;0.30;;
48987;SDS011;34799;51.440;-2.534;2023-04-25T14:46:36;2.40;;;0.35;;
48987;SDS011;34799;51.440;-2.534;2023-04-25T14:49:03;3.38;;;0.52;;
48987;SDS011;34799;51.440;-2.534;2023-04-25T14:51:31;3.75;;;0.65;;
48987;SDS011;34799;51.440;-2.534;2023-04-25T14:53:58;1.58;;;0.40;;
48987;SDS011;34799;51.440;-2.534;2023-04-25T14:56:25;2.03;;;0.40;;
48987;SDS011;34799;51.440;-2.534;2023-04-25T14:58:52;3.50;;;0.40;;
48987;SDS011;34799;51.440;-2.534;2023-04-25T15:01:19;1.42;;;0.40;;
48987;SDS011;34799;51.440;-2.534;2023-04-25T15:03:48;3.22;;;0.30;;
48987;SDS011;34799;51.440;-2.534;2023-04-25T15:06:15;2.13;;;0.50;;